Time;durP1;ratioP1;P1;durP2;ratioP2;P2;SDS_P1;SDS_P2;PMS_P1;PMS_P2;Temp;Humidity;BMP_temperature;BMP_pressure;BME280_temperature;BME280_humidity;BME280_pressure;Samples;Min_cycle;Max_cycle;Signal;HPM_P1;HPM_P2
2021/05/31 00:01:36;;;;;;;8.75;4.63;;;12.30;57.10;;;;;;5083383;28;20037;-39
2021/05/31 00:04:01;;;;;;;7.72;4.47;;;12.30;57.60;;;;;;5083162;28;20067;-39
2021/05/31 00:06:27;;;;;;;9.45;4.68;;;12.40;57.90;;;;;;5085168;28;20036;-39
2021/05/31 00:08:52;;;;;;;7.60;3.97;;;12.30;58.10;;;;;;5081968;28;20037;-39
2021/05/31 00:11:18;;;;;;;6.25;3.83;;;12.30;58.00;;;;;;5082865;28;20048;-38
2021/05/31 00:13:44;;;;;;;8.68;4.10;;;12.30;57.90;;;;;;5083183;28;20376;-44
2021/05/31 00:16:28;;;;;;;7.22;4.60;;;12.20;57.90;;;;;;5082958;28;20035;-44
2021/05/31 00:19:14;;;;;;;8.63;4.43;;;12.20;58.00;;;;;;5082900;28;20039;-41
2021/05/31 00:21:58;;;;;;;7.22;4.40;;;12.10;58.30;;;;;;5082741;28;20078;-39
2021/05/31 00:24:42;;;;;;;6.32;4.43;;;12.10;58.60;;;;;;5082774;28;20047;-39
2021/05/31 00:27:26;;;;;;;6.82;4.25;;;12.00;58.60;;;;;;5084352;28;20020;-39
2021/05/31 00:30:11;;;;;;;8.63;4.40;;;12.00;58.80;;;;;;5083142;28;20094;-39
2021/05/31 00:32:55;;;;;;;8.15;4.57;;;12.10;58.70;;;;;;5082677;28;20038;-38
2021/05/31 00:35:40;;;;;;;7.35;4.30;;;12.00;58.20;;;;;;5082797;28;20035;-39
2021/05/31 00:38:24;;;;;;;6.40;3.95;;;12.00;58.20;;;;;;5082653;28;20123;-39
2021/05/31 00:41:08;;;;;;;6.50;4.07;;;11.90;58.10;;;;;;5083236;28;20078;-39
2021/05/31 00:43:53;;;;;;;9.65;4.40;;;11.90;58.10;;;;;;5082680;28;20404;-39
2021/05/31 00:46:37;;;;;;;5.60;3.90;;;11.80;58.60;;;;;;5081864;28;20088;-38
2021/05/31 00:49:23;;;;;;;6.32;4.10;;;11.80;58.90;;;;;;5082507;28;20049;-39
2021/05/31 00:52:07;;;;;;;6.40;3.78;;;11.90;59.20;;;;;;5082797;28;20431;-39
2021/05/31 00:54:51;;;;;;;5.95;3.88;;;11.80;59.10;;;;;;5082619;28;20658;-40
2021/05/31 00:57:35;;;;;;;7.10;4.32;;;11.80;59.00;;;;;;5082498;28;20389;-39
2021/05/31 01:00:20;;;;;;;6.63;3.80;;;11.70;59.00;;;;;;5084154;28;20196;-39
2021/05/31 01:03:04;;;;;;;5.57;3.63;;;11.70;59.20;;;;;;5082807;28;20031;-39
2021/05/31 01:05:49;;;;;;;7.47;3.97;;;11.80;59.10;;;;;;5082971;28;20055;-38
2021/05/31 01:08:46;;;;;;;6.22;4.30;;;11.60;59.40;;;;;;5081530;28;20051;-39
2021/05/31 01:11:55;;;;;;;6.10;4.03;;;11.70;59.70;;;;;;5081337;28;20035;-39
2021/05/31 01:15:05;;;;;;;6.07;4.05;;;11.60;59.60;;;;;;5082389;28;20224;-39
2021/05/31 01:17:55;;;;;;;7.68;4.03;;;11.60;58.80;;;;;;5081957;28;20055;-39
2021/05/31 01:21:09;;;;;;;6.57;3.83;;;11.60;59.10;;;;;;5082716;28;20204;-39
2021/05/31 01:24:22;;;;;;;6.18;3.90;;;11.50;59.20;;;;;;5083084;28;20055;-39
2021/05/31 01:27:11;;;;;;;6.03;3.83;;;11.40;59.30;;;;;;5082531;28;20386;-38
2021/05/31 01:30:07;;;;;;;7.28;4.15;;;11.40;59.60;;;;;;5081018;28;20047;-39
2021/05/31 01:32:52;;;;;;;7.22;4.18;;;11.40;59.80;;;;;;5082683;28;20247;-39
2021/05/31 01:35:36;;;;;;;9.73;4.18;;;11.40;59.90;;;;;;5081757;28;20039;-39
2021/05/31 01:38:20;;;;;;;6.47;4.47;;;11.40;59.60;;;;;;5082391;28;20063;-39
2021/05/31 01:41:04;;;;;;;5.68;3.85;;;11.30;59.20;;;;;;5081592;28;20032;-39
2021/05/31 01:43:49;;;;;;;6.28;3.95;;;11.30;59.30;;;;;;5081512;28;20095;-38
2021/05/31 01:46:33;;;;;;;5.82;3.80;;;11.30;59.60;;;;;;5082414;28;20158;-39
2021/05/31 01:49:18;;;;;;;7.38;4.20;;;11.30;59.60;;;;;;5081131;28;20047;-39
2021/05/31 01:52:03;;;;;;;6.45;4.15;;;11.30;59.90;;;;;;5080918;28;20134;-39
2021/05/31 01:54:47;;;;;;;6.75;4.28;;;11.20;60.10;;;;;;5080931;28;20028;-38
2021/05/31 01:57:31;;;;;;;8.10;4.28;;;11.20;60.00;;;;;;5082570;28;20028;-39
2021/05/31 02:00:16;;;;;;;7.50;4.05;;;11.10;60.10;;;;;;5081335;28;20039;-38
2021/05/31 02:03:01;;;;;;;5.93;4.20;;;11.10;59.80;;;;;;5082148;28;20085;-38
2021/05/31 02:05:45;;;;;;;6.25;4.13;;;11.10;59.80;;;;;;5082285;28;20044;-39
2021/05/31 02:08:30;;;;;;;8.35;4.38;;;11.10;59.80;;;;;;5082182;28;20343;-39
2021/05/31 02:11:35;;;;;;;5.82;3.72;;;11.00;59.70;;;;;;5081057;28;20036;-38
2021/05/31 02:14:30;;;;;;;5.45;3.60;;;11.00;59.40;;;;;;5081165;28;20035;-38
2021/05/31 02:17:20;;;;;;;6.63;4.35;;;10.90;59.40;;;;;;5081082;28;20344;-39
2021/05/31 02:20:12;;;;;;;7.03;4.60;;;10.90;59.20;;;;;;5084174;28;20039;-38
2021/05/31 02:22:57;;;;;;;;;;;10.90;59.10;;;;;;5085510;28;20301;-39
2021/05/31 02:25:41;;;;;;;6.43;4.00;;;10.80;59.60;;;;;;5088773;28;20147;-39
2021/05/31 02:28:25;;;;;;;7.43;4.03;;;10.80;59.50;;;;;;5084102;28;20043;-38
2021/05/31 02:31:09;;;;;;;7.35;4.35;;;10.70;59.40;;;;;;5084162;28;20255;-38
2021/05/31 02:33:54;;;;;;;7.03;4.47;;;10.70;59.30;;;;;;5084118;28;20035;-38
2021/05/31 02:36:38;;;;;;;5.97;3.92;;;10.70;59.20;;;;;;5084971;28;20066;-39
2021/05/31 02:39:22;;;;;;;5.90;4.00;;;10.70;59.40;;;;;;5085716;28;20023;-39
2021/05/31 02:42:06;;;;;;;5.55;3.53;;;10.60;59.60;;;;;;5085294;28;20035;-38
2021/05/31 02:44:51;;;;;;;5.22;3.53;;;10.70;59.30;;;;;;5084424;28;20052;-38
2021/05/31 02:47:35;;;;;;;5.45;3.63;;;10.60;59.20;;;;;;5083733;28;20282;-38
2021/05/31 02:50:19;;;;;;;5.35;3.63;;;10.60;59.50;;;;;;5084756;28;20071;-39
2021/05/31 02:53:04;;;;;;;5.50;3.50;;;10.50;59.60;;;;;;5084997;28;20327;-38
2021/05/31 02:55:48;;;;;;;5.65;3.88;;;10.60;59.50;;;;;;5084878;28;20384;-39
2021/05/31 02:58:32;;;;;;;7.47;3.90;;;10.50;59.60;;;;;;5084723;28;20086;-39
2021/05/31 03:01:16;;;;;;;7.75;4.03;;;10.50;59.50;;;;;;5084707;28;20100;-38
2021/05/31 03:04:02;;;;;;;6.53;3.67;;;10.50;59.50;;;;;;5084581;28;20370;-39
2021/05/31 03:06:46;;;;;;;4.88;3.50;;;10.40;59.70;;;;;;5083598;28;20028;-38
2021/05/31 03:09:31;;;;;;;6.40;3.80;;;10.40;59.50;;;;;;5085996;28;20121;-38
2021/05/31 03:12:15;;;;;;;5.25;3.65;;;10.40;59.50;;;;;;5084663;28;20032;-38
2021/05/31 03:14:59;;;;;;;6.00;3.50;;;10.40;59.80;;;;;;5084640;28;20056;-38
2021/05/31 03:17:46;;;;;;;5.28;3.65;;;10.30;59.70;;;;;;5084687;28;20078;-38
2021/05/31 03:20:30;;;;;;;6.50;3.50;;;10.30;59.80;;;;;;5084403;28;20082;-38
2021/05/31 03:23:15;;;;;;;5.22;3.60;;;10.30;60.20;;;;;;5084067;28;20101;-38
2021/05/31 03:25:59;;;;;;;6.20;3.67;;;10.30;59.90;;;;;;5083749;28;20039;-38
2021/05/31 03:28:43;;;;;;;6.32;3.80;;;10.30;59.70;;;;;;5083274;28;20096;-39
2021/05/31 03:31:27;;;;;;;6.10;3.88;;;10.20;59.50;;;;;;5082454;28;20052;-38
2021/05/31 03:34:11;;;;;;;7.38;3.88;;;10.30;59.80;;;;;;5083990;28;20044;-39
2021/05/31 03:36:56;;;;;;;6.18;3.60;;;10.20;60.00;;;;;;5083872;28;20200;-39
2021/05/31 03:39:40;;;;;;;5.88;3.63;;;10.20;60.50;;;;;;5083768;28;20409;-39
2021/05/31 03:42:24;;;;;;;4.93;3.55;;;10.20;60.40;;;;;;5085960;28;20066;-39
2021/05/31 03:45:09;;;;;;;5.35;3.40;;;10.20;60.10;;;;;;5084046;28;20032;-38
2021/05/31 03:47:53;;;;;;;5.30;3.58;;;10.20;60.10;;;;;;5084317;28;20216;-38
2021/05/31 03:50:37;;;;;;;5.90;4.32;;;10.20;60.40;;;;;;5084024;28;20031;-38
2021/05/31 03:53:22;;;;;;;6.25;3.70;;;10.20;60.30;;;;;;5083878;28;20056;-39
2021/05/31 03:56:06;;;;;;;4.53;3.42;;;10.20;60.20;;;;;;5083463;28;20028;-39
2021/05/31 03:58:52;;;;;;;6.53;3.88;;;10.20;60.40;;;;;;5083926;28;20077;-38
2021/05/31 04:01:36;;;;;;;4.55;3.47;;;10.20;60.60;;;;;;5083513;28;20078;-38
2021/05/31 04:04:21;;;;;;;7.70;4.03;;;10.20;60.30;;;;;;5083370;28;20094;-38
2021/05/31 04:13:12;;;;;;;5.32;3.90;;;10.20;60.50;;;;;;5083302;28;20070;-38
2021/05/31 04:15:56;;;;;;;5.88;3.92;;;10.20;60.60;;;;;;5083029;28;20040;-38
2021/05/31 04:18:41;;;;;;;6.97;3.80;;;10.20;60.60;;;;;;5082969;28;20216;-38
2021/05/31 04:21:25;;;;;;;8.10;4.15;;;10.30;60.70;;;;;;5084428;28;20079;-39
2021/05/31 04:24:10;;;;;;;7.00;3.72;;;10.30;60.90;;;;;;5083261;28;20039;-39
2021/05/31 04:26:54;;;;;;;9.10;3.88;;;10.30;60.80;;;;;;5082953;28;20093;-38
2021/05/31 04:29:38;;;;;;;9.43;4.60;;;10.40;60.80;;;;;;5082977;28;20039;-38
2021/05/31 04:32:23;;;;;;;7.68;4.30;;;10.40;60.80;;;;;;5082882;28;20043;-38
2021/05/31 04:35:07;;;;;;;9.35;4.53;;;10.40;60.50;;;;;;5082764;28;20055;-38
2021/05/31 04:37:56;;;;;;;7.70;4.82;;;10.50;60.30;;;;;;5082892;28;20039;-38
2021/05/31 04:40:40;;;;;;;12.55;4.90;;;10.50;60.70;;;;;;5082848;28;20055;-39
2021/05/31 04:43:24;;;;;;;9.38;4.60;;;10.50;60.90;;;;;;5082869;28;20085;-38
2021/05/31 04:46:08;;;;;;;6.85;4.53;;;10.50;60.60;;;;;;5082703;28;20273;-39
2021/05/31 04:48:53;;;;;;;7.28;4.60;;;10.60;60.10;;;;;;5082719;28;20195;-39
2021/05/31 04:51:38;;;;;;;9.48;4.60;;;10.60;60.40;;;;;;5082314;28;20031;-38
2021/05/31 04:54:22;;;;;;;8.93;5.18;;;10.60;60.50;;;;;;5084123;28;20314;-39
2021/05/31 04:57:06;;;;;;;7.53;4.70;;;10.70;60.20;;;;;;5082832;28;20075;-39
2021/05/31 04:59:50;;;;;;;6.53;4.63;;;10.70;60.50;;;;;;5083092;28;20099;-38
2021/05/31 05:02:35;;;;;;;8.57;5.15;;;10.80;60.30;;;;;;5082534;28;20085;-38
2021/05/31 05:05:19;;;;;;;9.45;5.13;;;10.80;60.70;;;;;;5082747;28;20043;-38
2021/05/31 05:08:04;;;;;;;8.10;4.55;;;10.80;60.80;;;;;;5082396;28;20039;-39
2021/05/31 05:10:48;;;;;;;9.00;5.22;;;10.80;61.20;;;;;;5082571;28;20039;-39
2021/05/31 05:13:33;;;;;;;11.15;4.97;;;10.90;61.30;;;;;;5082636;28;20236;-39
2021/05/31 05:16:17;;;;;;;7.57;4.90;;;10.90;61.30;;;;;;5082564;28;20395;-39
2021/05/31 05:19:01;;;;;;;10.15;5.00;;;11.00;61.30;;;;;;5081659;28;20027;-38
2021/05/31 05:21:45;;;;;;;10.23;5.75;;;11.10;60.50;;;;;;5081991;28;20102;-39
2021/05/31 05:24:30;;;;;;;12.50;4.88;;;11.20;60.20;;;;;;5083924;28;20055;-39
2021/05/31 05:27:15;;;;;;;9.57;4.97;;;11.20;60.30;;;;;;5082672;28;20052;-39
2021/05/31 05:29:59;;;;;;;7.90;5.10;;;11.20;60.40;;;;;;5082785;28;20077;-39
2021/05/31 05:32:48;;;;;;;12.02;5.72;;;11.30;60.30;;;;;;5082320;28;20036;-39
2021/05/31 05:35:48;;;;;;;8.68;5.43;;;11.30;60.10;;;;;;5081938;28;20042;-39
2021/05/31 05:38:44;;;;;;;13.35;5.93;;;11.40;60.10;;;;;;5082119;28;20135;-39
2021/05/31 05:44:38;;;;;;;9.13;5.82;;;11.60;59.60;;;;;;5082578;28;20051;-39
2021/05/31 05:50:08;;;;;;;10.50;5.93;;;11.60;60.10;;;;;;5081700;28;20058;-38
2021/05/31 05:52:53;;;;;;;9.35;6.10;;;11.70;60.10;;;;;;5082042;28;20344;-39
2021/05/31 05:55:37;;;;;;;10.82;5.93;;;11.70;60.20;;;;;;5085848;28;20100;-39
2021/05/31 05:58:27;;;;;;;10.85;5.97;;;11.60;60.10;;;;;;5085803;28;20040;-39
2021/05/31 06:01:11;;;;;;;12.90;6.38;;;11.80;60.10;;;;;;5085693;28;20143;-39
2021/05/31 06:03:57;;;;;;;11.20;5.85;;;11.90;60.20;;;;;;5085690;28;20221;-39
2021/05/31 06:06:43;;;;;;;11.38;5.95;;;11.90;60.20;;;;;;5085394;28;20026;-39
2021/05/31 06:09:27;;;;;;;10.45;5.80;;;12.00;60.10;;;;;;5087010;28;20032;-39
2021/05/31 06:12:12;;;;;;;12.40;6.28;;;12.10;60.30;;;;;;5085848;28;20028;-39
2021/05/31 06:14:56;;;;;;;10.57;6.00;;;12.10;60.30;;;;;;5085555;28;20351;-39
2021/05/31 06:17:40;;;;;;;12.75;5.82;;;12.20;60.40;;;;;;5086138;28;20070;-39
2021/05/31 06:20:25;;;;;;;8.05;5.85;;;12.30;60.00;;;;;;5085607;28;20342;-38
2021/05/31 06:23:09;;;;;;;9.13;5.78;;;12.30;60.10;;;;;;5085414;28;20051;-38
2021/05/31 06:25:54;;;;;;;11.27;6.97;;;12.40;59.90;;;;;;5085221;28;20282;-38
2021/05/31 06:28:38;;;;;;;12.75;5.95;;;12.50;59.60;;;;;;5084342;28;20078;-38
2021/05/31 06:31:22;;;;;;;12.45;5.72;;;12.50;59.50;;;;;;5085163;28;20183;-39
2021/05/31 06:34:07;;;;;;;7.13;5.03;;;12.60;59.50;;;;;;5085200;28;20035;-39
2021/05/31 06:36:55;;;;;;;9.07;5.60;;;12.70;59.20;;;;;;5085146;28;20035;-39
2021/05/31 06:39:39;;;;;;;8.75;5.07;;;12.70;59.20;;;;;;5085026;28;20065;-39
2021/05/31 06:42:23;;;;;;;8.13;5.18;;;12.80;59.70;;;;;;5086431;28;20137;-39
2021/05/31 06:45:09;;;;;;;8.45;5.60;;;12.90;59.20;;;;;;5085195;28;20031;-39
2021/05/31 06:47:58;;;;;;;8.82;5.63;;;12.90;59.00;;;;;;5084889;28;20446;-39
2021/05/31 06:50:44;;;;;;;5.90;4.43;;;13.10;59.00;;;;;;5085331;28;20211;-39
2021/05/31 06:53:28;;;;;;;8.65;5.07;;;13.10;58.20;;;;;;5084815;28;20040;-39
2021/05/31 06:56:13;;;;;;;9.35;5.65;;;13.20;58.00;;;;;;5084698;28;20100;-39
2021/05/31 06:58:57;;;;;;;8.18;5.25;;;13.30;58.80;;;;;;5084466;28;20077;-39
2021/05/31 07:01:43;;;;;;;11.45;5.43;;;13.40;58.90;;;;;;5084642;28;20263;-39
2021/05/31 07:04:28;;;;;;;8.95;5.30;;;13.50;59.20;;;;;;5084748;28;20040;-39
2021/05/31 07:07:12;;;;;;;8.55;5.07;;;13.60;59.40;;;;;;5083702;28;20036;-39
2021/05/31 07:09:56;;;;;;;9.60;5.60;;;13.70;59.10;;;;;;5084492;28;20040;-39
2021/05/31 07:12:41;;;;;;;13.20;5.78;;;13.80;59.20;;;;;;5084409;28;20082;-39
2021/05/31 07:15:25;;;;;;;23.67;6.22;;;13.90;59.20;;;;;;5086110;28;20023;-39
2021/05/31 07:18:11;;;;;;;8.60;4.60;;;14.00;59.40;;;;;;5084597;28;20078;-46
2021/05/31 07:20:55;;;;;;;7.72;5.00;;;14.00;57.00;;;;;;5084466;28;20350;-43
2021/05/31 07:23:39;;;;;;;8.52;4.93;;;14.20;56.90;;;;;;5083310;28;20040;-39
2021/05/31 07:26:23;;;;;;;7.70;4.82;;;14.30;55.50;;;;;;5083644;28;20040;-39
2021/05/31 07:29:07;;;;;;;10.40;4.82;;;14.30;56.50;;;;;;5084258;28;20103;-39
2021/05/31 07:31:51;;;;;;;6.75;4.40;;;14.40;54.90;;;;;;5084489;28;20040;-39
2021/05/31 07:34:36;;;;;;;4.93;3.80;;;14.50;54.80;;;;;;5084071;28;20124;-39
2021/05/31 07:37:20;;;;;;;8.80;4.28;;;14.70;55.30;;;;;;5083101;28;20267;-39
2021/05/31 07:40:06;;;;;;;7.78;4.38;;;14.80;55.50;;;;;;5084764;28;20031;-40
2021/05/31 07:42:50;;;;;;;8.07;4.45;;;14.90;54.00;;;;;;5074966;28;20264;-48
2021/05/31 07:45:34;;;;;;;6.75;4.25;;;15.10;54.20;;;;;;5084009;28;20347;-48
2021/05/31 07:48:19;;;;;;;8.82;4.53;;;15.30;53.70;;;;;;5084460;28;20224;-50
2021/05/31 07:51:19;;;;;;;5.38;3.90;;;15.30;52.90;;;;;;5084191;28;20032;-46
2021/05/31 07:54:04;;;;;;;8.30;3.80;;;15.50;53.60;;;;;;5084929;28;20039;-46
2021/05/31 07:56:48;;;;;;;5.32;3.75;;;15.60;51.90;;;;;;5084073;28;20296;-46
2021/05/31 07:59:32;;;;;;;7.95;3.83;;;15.80;52.10;;;;;;5083784;28;20386;-46
2021/05/31 08:02:16;;;;;;;5.97;3.20;;;15.90;51.50;;;;;;5083444;28;20067;-47
2021/05/31 08:05:01;;;;;;;4.40;3.03;;;16.00;51.50;;;;;;5082382;28;20039;-46
2021/05/31 08:07:45;;;;;;;8.13;3.28;;;16.10;50.20;;;;;;5083666;28;20078;-46
2021/05/31 08:10:30;;;;;;;4.13;2.70;;;16.30;51.00;;;;;;5082305;28;20055;-47
2021/05/31 08:13:14;;;;;;;5.00;3.13;;;16.40;50.60;;;;;;5083668;28;20040;-48
2021/05/31 08:15:58;;;;;;;7.07;3.55;;;16.50;47.60;;;;;;5082861;28;20036;-47
2021/05/31 08:18:43;;;;;;;10.60;3.72;;;16.60;47.00;;;;;;5082939;28;20027;-47
2021/05/31 08:21:27;;;;;;;6.53;4.10;;;16.70;48.50;;;;;;5084679;28;20043;-46
2021/05/31 08:24:12;;;;;;;5.47;3.92;;;16.80;47.50;;;;;;5083558;28;20043;-46
2021/05/31 08:26:56;;;;;;;7.65;3.63;;;16.90;47.90;;;;;;5083442;28;20039;-48
2021/05/31 08:29:41;;;;;;;5.55;3.85;;;17.00;47.40;;;;;;5082843;28;20055;-46
2021/05/31 08:32:25;;;;;;;7.50;3.65;;;17.20;47.40;;;;;;5082918;28;20039;-46
2021/05/31 08:35:09;;;;;;;4.78;3.45;;;17.30;48.20;;;;;;5082905;28;20044;-46
2021/05/31 08:37:54;;;;;;;7.97;3.85;;;17.40;47.70;;;;;;5083182;28;20032;-46
2021/05/31 08:40:38;;;;;;;4.45;3.65;;;17.40;47.50;;;;;;5082280;28;20040;-47
2021/05/31 08:43:22;;;;;;;6.50;3.05;;;17.50;46.00;;;;;;5083253;28;20035;-48
2021/05/31 08:46:07;;;;;;;6.05;3.97;;;17.60;45.60;;;;;;5083946;28;20077;-40
2021/05/31 08:48:51;;;;;;;5.70;3.47;;;17.70;46.40;;;;;;5084199;28;20032;-40
2021/05/31 08:51:36;;;;;;;4.28;3.00;;;17.80;45.50;;;;;;5081989;28;20070;-40
2021/05/31 08:54:20;;;;;;;25.55;4.78;;;17.90;46.90;;;;;;5084427;28;20019;-52
2021/05/31 08:57:04;;;;;;;5.00;3.50;;;18.00;58.60;;;;;;5082938;28;20035;-40
2021/05/31 08:59:49;;;;;;;4.60;3.35;;;18.30;46.80;;;;;;5083265;28;20104;-39
2021/05/31 09:02:35;;;;;;;12.18;3.78;;;18.40;46.40;;;;;;5081714;28;20031;-40
2021/05/31 09:05:39;;;;;;;8.48;4.53;;;18.50;45.40;;;;;;5083054;28;20040;-40
2021/05/31 09:08:23;;;;;;;7.68;4.10;;;18.70;44.60;;;;;;5082602;28;20147;-40
2021/05/31 09:11:07;;;;;;;6.50;3.55;;;18.80;44.50;;;;;;5082466;28;20078;-39
2021/05/31 09:13:52;;;;;;;5.35;3.78;;;18.80;43.30;;;;;;5082420;28;20031;-39
2021/05/31 09:16:36;;;;;;;16.35;5.90;;;18.90;43.20;;;;;;5082039;28;20382;-40
2021/05/31 09:19:21;;;;;;;11.02;4.35;;;19.10;44.10;;;;;;5081823;28;20066;-40
2021/05/31 09:22:05;;;;;;;8.40;4.10;;;19.10;42.00;;;;;;5082333;28;20048;-40
2021/05/31 09:25:07;;;;;;;6.97;3.80;;;19.20;43.70;;;;;;5081992;28;20217;-40
2021/05/31 09:27:52;;;;;;;5.85;4.00;;;19.30;41.10;;;;;;5082161;28;20109;-40
2021/05/31 09:30:42;;;;;;;7.95;3.88;;;19.50;42.10;;;;;;5086387;28;20027;-40
2021/05/31 09:33:26;;;;;;;4.43;3.28;;;19.50;44.00;;;;;;5087914;28;20204;-40
2021/05/31 09:36:10;;;;;;;5.00;3.30;;;19.70;43.20;;;;;;5086531;28;20040;-40
2021/05/31 09:38:54;;;;;;;4.50;3.30;;;19.80;44.50;;;;;;5086183;28;20059;-40
2021/05/31 09:41:39;;;;;;;4.57;2.85;;;19.90;43.00;;;;;;5086508;28;20243;-40
2021/05/31 09:44:23;;;;;;;6.47;3.60;;;20.00;42.20;;;;;;5086265;28;20069;-40
2021/05/31 09:47:07;;;;;;;3.90;2.90;;;20.00;41.70;;;;;;5085386;28;20036;-40
2021/05/31 09:49:51;;;;;;;3.80;3.08;;;20.10;42.40;;;;;;5086158;28;20047;-39
2021/05/31 09:52:36;;;;;;;6.20;3.40;;;20.20;40.50;;;;;;5086413;28;20039;-41
2021/05/31 09:55:20;;;;;;;4.00;2.88;;;20.10;39.80;;;;;;5086961;28;20086;-40
2021/05/31 09:58:09;;;;;;;5.93;3.10;;;20.20;39.70;;;;;;5086541;28;20036;-40
2021/05/31 10:00:58;;;;;;;3.40;2.50;;;20.30;40.20;;;;;;5085791;28;20078;-40
2021/05/31 10:04:08;;;;;;;5.35;3.00;;;20.40;40.10;;;;;;5086864;28;20027;-40
2021/05/31 10:06:57;;;;;;;3.95;2.90;;;20.30;39.40;;;;;;5085558;28;20268;-40
2021/05/31 10:09:41;;;;;;;4.43;3.00;;;20.40;39.90;;;;;;5085303;28;20059;-40
2021/05/31 10:12:26;;;;;;;6.50;3.08;;;20.50;38.70;;;;;;5086137;28;20053;-40
2021/05/31 10:15:12;;;;;;;5.35;3.20;;;20.50;37.70;;;;;;5085908;28;20036;-39
2021/05/31 10:17:57;;;;;;;4.32;2.70;;;20.50;38.60;;;;;;5084901;28;20043;-40
2021/05/31 10:20:42;;;;;;;3.95;2.45;;;20.60;39.50;;;;;;5085695;28;20079;-39
2021/05/31 10:23:26;;;;;;;4.43;3.20;;;20.60;39.10;;;;;;5069317;28;20055;-39
2021/05/31 10:26:11;;;;;;;4.70;3.38;;;20.70;38.00;;;;;;5084625;28;20059;-39
2021/05/31 10:28:55;;;;;;;5.22;2.95;;;20.60;36.20;;;;;;5083418;28;20338;-39
2021/05/31 10:31:43;;;;;;;6.70;2.75;;;20.70;37.80;;;;;;5084369;28;20342;-39
2021/05/31 10:34:28;;;;;;;4.45;3.15;;;20.90;40.00;;;;;;5083852;28;20262;-39
2021/05/31 10:37:28;;;;;;;3.78;2.72;;;21.10;40.20;;;;;;5083916;28;20334;-39
2021/05/31 10:40:13;;;;;;;5.05;3.08;;;21.20;37.20;;;;;;5083486;28;20039;-39
2021/05/31 10:42:58;;;;;;;4.25;2.88;;;21.30;38.10;;;;;;5084045;28;20043;-40
2021/05/31 10:45:42;;;;;;;4.32;2.80;;;21.30;37.50;;;;;;5083781;28;20082;-39
2021/05/31 10:48:27;;;;;;;5.95;3.00;;;21.30;37.50;;;;;;5085555;28;20350;-39
2021/05/31 10:51:22;;;;;;;6.32;3.10;;;21.40;37.60;;;;;;5084385;28;20216;-40
2021/05/31 10:54:10;;;;;;;13.60;3.33;;;21.30;37.20;;;;;;5083860;28;20036;-40
2021/05/31 10:57:04;;;;;;;3.60;2.40;;;21.30;39.30;;;;;;5083660;28;20267;-39
2021/05/31 10:59:51;;;;;;;6.47;2.85;;;21.30;36.40;;;;;;5083867;28;20233;-40
2021/05/31 11:02:35;;;;;;;4.63;3.20;;;21.40;38.20;;;;;;5083791;28;20036;-39
2021/05/31 11:05:29;;;;;;;4.35;2.95;;;21.40;37.10;;;;;;5083312;28;20355;-39
2021/05/31 11:08:23;;;;;;;4.10;2.92;;;21.50;37.50;;;;;;5083435;28;20039;-40
2021/05/31 11:11:07;;;;;;;4.00;2.90;;;21.50;37.40;;;;;;5082208;28;20063;-40
2021/05/31 11:13:53;;;;;;;4.00;2.83;;;21.60;37.70;;;;;;5083129;28;20086;-40
2021/05/31 11:16:50;;;;;;;4.93;2.72;;;21.70;36.60;;;;;;5083226;28;20051;-40
2021/05/31 11:19:38;;;;;;;3.88;3.10;;;21.80;36.20;;;;;;5083207;28;20233;-39
2021/05/31 11:22:24;;;;;;;5.28;2.67;;;21.80;35.80;;;;;;5046900;28;1061147;-39
2021/05/31 11:25:10;;;;;;;5.30;2.92;;;21.80;37.70;;;;;;5084189;28;20043;-39
2021/05/31 11:28:01;;;;;;;6.97;3.30;;;21.90;36.20;;;;;;5084070;28;20145;-40
2021/05/31 11:30:46;;;;;;;4.55;2.90;;;21.90;35.50;;;;;;5084006;28;20431;-40
2021/05/31 11:33:33;;;;;;;5.28;3.20;;;21.90;36.50;;;;;;5085909;28;20019;-39
2021/05/31 11:36:26;;;;;;;5.68;2.70;;;22.00;36.40;;;;;;5084338;28;20077;-39
2021/05/31 11:39:13;;;;;;;3.60;2.55;;;22.10;37.40;;;;;;5084057;28;20401;-39
2021/05/31 11:41:56;;;;;;;3.00;2.50;;;22.10;35.60;;;;;;5084435;28;20386;-39
2021/05/31 11:44:41;;;;;;;5.93;2.67;;;22.10;34.40;;;;;;5084381;28;20042;-40
2021/05/31 11:47:27;;;;;;;3.67;2.70;;;22.10;36.00;;;;;;5084110;28;20263;-40
2021/05/31 11:50:18;;;;;;;6.30;2.53;;;22.20;35.60;;;;;;5083953;28;20052;-39
2021/05/31 11:53:03;;;;;;;5.15;2.50;;;22.10;35.70;;;;;;5083656;28;20270;-39
2021/05/31 11:55:47;;;;;;;4.38;2.50;;;22.30;35.20;;;;;;5083841;28;20130;-39
2021/05/31 11:58:31;;;;;;;3.97;2.78;;;22.20;35.30;;;;;;5083464;28;20094;-40
2021/05/31 12:01:15;;;;;;;5.30;2.65;;;22.30;36.70;;;;;;5083396;28;20070;-39
2021/05/31 12:04:00;;;;;;;4.97;2.38;;;22.30;34.70;;;;;;5083466;28;20355;-40
2021/05/31 12:06:55;;;;;;;5.63;2.60;;;22.30;36.40;;;;;;5082360;28;20075;-39
2021/05/31 12:09:41;;;;;;;3.30;2.30;;;22.40;36.60;;;;;;5082242;28;20032;-39
2021/05/31 12:12:25;;;;;;;3.95;2.22;;;22.50;35.50;;;;;;5083743;28;20283;-40
2021/05/31 12:15:13;;;;;;;4.97;2.60;;;22.60;35.50;;;;;;5083349;28;20036;-39
2021/05/31 12:18:13;;;;;;;4.40;2.60;;;22.50;34.90;;;;;;5083332;28;20032;-39
2021/05/31 12:20:58;;;;;;;3.05;2.40;;;22.30;32.60;;;;;;5083285;28;20040;-40
2021/05/31 12:23:48;;;;;;;4.13;2.58;;;22.30;34.70;;;;;;5083654;28;20051;-39
2021/05/31 12:26:32;;;;;;;8.75;3.05;;;22.20;32.40;;;;;;5083159;28;20055;-39
2021/05/31 12:29:16;;;;;;;4.28;2.83;;;22.20;35.10;;;;;;5083532;28;20035;-40
2021/05/31 12:32:11;;;;;;;4.13;2.30;;;22.30;35.10;;;;;;5083081;28;20036;-39
2021/05/31 12:34:56;;;;;;;4.25;2.28;;;22.40;35.70;;;;;;5083436;28;20040;-39
2021/05/31 12:37:29;;;;;;;3.88;2.63;;;22.40;33.30;;;;;;5082693;28;20028;-39
2021/05/31 12:39:55;;;;;;;5.93;3.08;;;22.30;34.30;;;;;;5082676;28;20028;-39
2021/05/31 12:42:22;;;;;;;3.35;2.45;;;22.30;32.90;;;;;;5083298;28;20037;-39
2021/05/31 12:44:48;;;;;;;4.68;2.70;;;22.20;33.40;;;;;;5083210;28;20381;-40
2021/05/31 12:47:15;;;;;;;2.70;2.30;;;22.20;34.90;;;;;;5081678;28;20043;-40
2021/05/31 12:49:45;;;;;;;6.68;2.92;;;22.20;34.40;;;;;;5064884;28;20043;-40
2021/05/31 12:52:11;;;;;;;3.20;2.72;;;22.30;34.40;;;;;;5082822;28;20037;-40
2021/05/31 12:54:36;;;;;;;3.25;2.63;;;22.30;35.60;;;;;;5082438;28;20047;-39
2021/05/31 12:57:13;;;;;;;3.13;2.47;;;22.20;35.80;;;;;;5084468;28;20024;-39
2021/05/31 12:59:40;;;;;;;5.78;2.90;;;22.30;37.00;;;;;;5082782;28;20324;-39
2021/05/31 13:02:15;;;;;;;4.63;2.70;;;22.40;34.90;;;;;;5082093;28;20052;-39
2021/05/31 13:04:41;;;;;;;4.32;2.97;;;22.30;34.40;;;;;;5081231;28;20032;-39
2021/05/31 13:07:16;;;;;;;5.00;2.97;;;22.20;35.20;;;;;;5082363;28;20343;-40
2021/05/31 13:09:42;;;;;;;4.28;2.78;;;22.30;34.60;;;;;;5077238;28;20044;-39
2021/05/31 13:12:08;;;;;;;5.05;3.00;;;22.40;34.90;;;;;;5082555;28;20044;-39
2021/05/31 13:14:43;;;;;;;6.88;2.90;;;22.40;34.20;;;;;;5081553;28;20351;-39
2021/05/31 13:17:09;;;;;;;5.10;2.60;;;22.40;34.90;;;;;;5081264;28;20228;-40
2021/05/31 13:19:40;;;;;;;4.65;2.50;;;22.30;34.80;;;;;;5082278;28;20040;-40
2021/05/31 13:22:10;;;;;;;2.88;2.20;;;22.40;35.70;;;;;;5082806;28;20048;-39
2021/05/31 13:24:37;;;;;;;4.15;2.35;;;22.40;34.80;;;;;;5081460;28;20036;-39
2021/05/31 13:27:13;;;;;;;5.15;2.60;;;22.40;34.00;;;;;;5082476;28;20064;-39
2021/05/31 13:29:39;;;;;;;2.95;2.40;;;22.30;33.00;;;;;;5081141;28;20064;-39
2021/05/31 13:32:06;;;;;;;11.07;2.70;;;22.40;34.50;;;;;;5082714;28;20133;-39
2021/05/31 13:34:35;;;;;;;5.88;2.70;;;22.40;35.80;;;;;;5082439;28;20032;-40
2021/05/31 13:37:11;;;;;;;4.00;2.67;;;22.30;33.30;;;;;;5083767;28;20039;-40
2021/05/31 13:39:37;;;;;;;5.18;2.33;;;22.30;32.20;;;;;;5082602;28;20086;-39
2021/05/31 13:42:03;;;;;;;6.30;2.40;;;22.20;33.70;;;;;;5082308;28;20216;-39
2021/05/31 13:44:28;;;;;;;6.35;2.50;;;22.30;34.10;;;;;;5082489;28;20041;-40
2021/05/31 13:46:54;;;;;;;3.92;2.45;;;22.30;33.70;;;;;;5082113;28;20269;-39
2021/05/31 13:49:19;;;;;;;5.25;2.60;;;22.30;33.40;;;;;;5081939;28;20046;-40
2021/05/31 13:51:46;;;;;;;4.15;2.20;;;22.30;34.70;;;;;;5083895;28;20066;-40
2021/05/31 13:54:12;;;;;;;6.03;2.40;;;22.30;34.80;;;;;;5082534;28;20047;-39
2021/05/31 13:56:38;;;;;;;5.00;2.33;;;22.30;34.30;;;;;;5081826;28;20349;-40
2021/05/31 13:59:04;;;;;;;4.22;2.42;;;22.30;34.30;;;;;;5081905;28;20320;-39
2021/05/31 14:01:30;;;;;;;3.22;2.17;;;22.30;34.70;;;;;;5082205;28;20202;-39
2021/05/31 14:03:56;;;;;;;6.18;2.55;;;22.40;35.20;;;;;;5083755;28;20020;-39
2021/05/31 14:06:21;;;;;;;4.88;2.33;;;22.30;33.80;;;;;;5082059;28;20061;-40
2021/05/31 14:08:47;;;;;;;5.70;2.15;;;22.40;34.10;;;;;;5080970;28;20032;-40
2021/05/31 14:11:12;;;;;;;4.97;2.40;;;22.50;34.70;;;;;;5081772;28;20227;-39
2021/05/31 14:13:38;;;;;;;3.58;2.20;;;22.40;33.30;;;;;;5081660;28;20379;-39
2021/05/31 14:16:03;;;;;;;6.05;2.25;;;22.40;33.00;;;;;;5086990;28;20036;-39
2021/05/31 14:18:29;;;;;;;3.30;2.17;;;22.50;33.80;;;;;;5085902;28;20048;-39
2021/05/31 14:20:54;;;;;;;3.65;2.42;;;22.40;33.40;;;;;;5085502;28;20075;-39